Time;durP1;ratioP1;P1;durP2;ratioP2;P2;SDS_P1;SDS_P2;PMS_P1;PMS_P2;Temp;Humidity;BMP_temperature;BMP_pressure;BME280_temperature;BME280_humidity;BME280_pressure;Samples;Min_cycle;Max_cycle;Signal;HPM_P1;HPM_P2
2022/01/16 00:00:47;;;;;;;15.37;8.10;;;2.70;99.90;;;;;;4931128;29;20678;-80
2022/01/16 00:05:58;;;;;;;16.87;8.90;;;2.70;99.90;;;;;;4932116;29;20569;-80
2022/01/16 00:08:24;;;;;;;15.60;8.23;;;2.70;99.90;;;;;;4931418;29;20443;-79
2022/01/16 00:10:50;;;;;;;16.43;9.00;;;2.70;99.90;;;;;;4933135;29;20425;-81
2022/01/16 00:13:16;;;;;;;19.23;10.13;;;2.70;99.90;;;;;;4916983;29;20175;-80
2022/01/16 00:15:44;;;;;;;12.70;7.73;;;2.80;99.90;;;;;;4917449;29;20750;-80
2022/01/16 00:18:20;;;;;;;12.87;7.70;;;2.80;99.90;;;;;;4933599;29;20458;-80
2022/01/16 00:20:46;;;;;;;16.27;10.27;;;2.80;99.90;;;;;;4930462;29;20406;-78
2022/01/16 00:23:12;;;;;;;16.90;9.23;;;2.70;99.90;;;;;;4930523;29;20785;-79
2022/01/16 00:25:37;;;;;;;16.53;9.20;;;2.80;99.90;;;;;;4924285;29;20433;-80
2022/01/16 00:28:03;;;;;;;15.37;9.17;;;2.70;99.90;;;;;;4926786;29;20194;-81
2022/01/16 00:30:29;;;;;;;12.70;8.20;;;2.80;99.90;;;;;;4925230;29;20513;-80
2022/01/16 00:32:59;;;;;;;19.47;9.50;;;2.80;99.90;;;;;;4922599;29;20261;-79
2022/01/16 00:35:25;;;;;;;16.43;9.90;;;2.80;99.90;;;;;;4926913;29;20181;-79
2022/01/16 00:37:52;;;;;;;21.27;11.70;;;2.80;99.90;;;;;;4924826;29;20833;-81
2022/01/16 00:40:20;;;;;;;21.63;10.20;;;2.80;99.90;;;;;;4927421;29;20470;-81
2022/01/16 00:42:45;;;;;;;19.17;10.83;;;2.80;99.90;;;;;;4942812;29;20993;-83
2022/01/16 00:45:11;;;;;;;13.90;9.57;;;2.80;99.90;;;;;;4923999;29;20424;-80
2022/01/16 00:47:37;;;;;;;25.90;13.70;;;2.80;99.90;;;;;;4923887;29;20226;-80
2022/01/16 00:50:04;;;;;;;19.57;10.80;;;2.80;99.90;;;;;;4924038;29;20159;-80
2022/01/16 00:52:29;;;;;;;14.43;8.90;;;2.90;99.90;;;;;;4923821;29;20163;-81
2022/01/16 00:54:58;;;;;;;17.10;8.93;;;2.80;99.90;;;;;;4925205;29;20962;-82
2022/01/16 00:57:24;;;;;;;19.67;10.67;;;2.80;99.90;;;;;;4923833;29;20174;-80
2022/01/16 00:59:50;;;;;;;22.60;11.10;;;2.80;99.90;;;;;;4922877;29;20533;-80
2022/01/16 01:02:16;;;;;;;23.37;11.87;;;2.80;99.90;;;;;;4925331;29;20468;-82
2022/01/16 01:04:44;;;;;;;19.27;11.23;;;2.80;99.90;;;;;;4919161;29;20221;-79
2022/01/16 01:07:10;;;;;;;17.23;9.60;;;2.90;99.90;;;;;;4922520;29;20234;-80
2022/01/16 01:09:36;;;;;;;17.07;10.10;;;2.90;99.90;;;;;;4922802;29;20442;-80
2022/01/16 01:12:03;;;;;;;17.97;10.07;;;2.90;99.90;;;;;;4920779;29;20179;-82
2022/01/16 01:14:52;;;;;;;16.73;9.90;;;2.90;99.90;;;;;;4923009;29;20900;-79
2022/01/16 01:17:23;;;;;;;17.10;10.40;;;2.90;99.90;;;;;;4925694;29;20414;-81
2022/01/16 01:19:50;;;;;;;18.17;11.30;;;3.00;99.90;;;;;;4925226;29;20470;-79
2022/01/16 01:22:16;;;;;;;17.53;9.60;;;3.00;99.90;;;;;;4924425;29;20443;-83
2022/01/16 01:24:41;;;;;;;13.33;9.10;;;3.00;99.90;;;;;;4917701;29;20425;-82
2022/01/16 01:27:23;;;;;;;19.40;10.97;;;3.00;99.90;;;;;;4924916;29;20328;-81
2022/01/16 01:29:59;;;;;;;16.20;9.27;;;3.00;99.90;;;;;;4906226;29;20469;-80
2022/01/16 01:32:25;;;;;;;14.77;8.63;;;3.10;99.90;;;;;;4921218;29;20413;-81
2022/01/16 01:34:51;;;;;;;15.80;10.40;;;3.10;99.90;;;;;;4922463;29;20984;-79
2022/01/16 01:37:16;;;;;;;17.20;9.20;;;3.10;99.90;;;;;;4919685;29;20434;-80
2022/01/16 01:39:42;;;;;;;14.53;8.90;;;3.10;99.90;;;;;;4907564;29;20194;-83
2022/01/16 01:42:10;;;;;;;16.20;10.23;;;3.10;99.90;;;;;;4931661;29;20163;-82
2022/01/16 01:52:53;;;;;;;19.77;10.20;;;3.00;99.90;;;;;;4925124;29;20410;-80
2022/01/16 01:55:20;;;;;;;15.90;10.00;;;3.10;99.90;;;;;;4911136;29;20489;-78
2022/01/16 01:57:46;;;;;;;18.10;10.83;;;3.10;99.90;;;;;;4910437;29;20645;-81
2022/01/16 02:00:18;;;;;;;14.27;9.17;;;3.10;99.90;;;;;;4924899;29;20418;-84
2022/01/16 02:05:37;;;;;;;14.70;9.13;;;3.20;99.90;;;;;;4890398;29;20435;-79
2022/01/16 02:08:05;;;;;;;14.67;8.80;;;3.20;99.90;;;;;;4902402;29;20739;-79
2022/01/16 02:10:30;;;;;;;20.60;10.10;;;3.20;99.90;;;;;;4922180;29;20426;-79
2022/01/16 02:13:03;;;;;;;22.33;11.33;;;3.10;99.90;;;;;;4920170;29;20863;-79
2022/01/16 02:32:13;;;;;;;23.73;9.90;;;3.20;99.90;;;;;;4953287;29;20405;-77
2022/01/16 02:34:42;;;;;;;23.20;12.20;;;3.20;99.90;;;;;;4952757;29;20417;-77
2022/01/16 02:37:11;;;;;;;21.33;11.60;;;3.20;99.90;;;;;;4952779;29;20464;-77
2022/01/16 02:39:40;;;;;;;16.80;9.37;;;3.10;99.90;;;;;;4952825;29;20440;-77
2022/01/16 02:42:08;;;;;;;20.10;11.50;;;3.10;99.90;;;;;;4953256;29;20552;-77
2022/01/16 02:44:43;;;;;;;16.70;10.50;;;3.20;99.90;;;;;;4952911;29;20906;-76
2022/01/16 02:47:14;;;;;;;17.20;10.03;;;3.20;99.90;;;;;;4953256;29;20460;-77
2022/01/16 02:49:44;;;;;;;18.73;10.93;;;3.20;99.90;;;;;;4952594;29;20425;-77
2022/01/16 02:52:12;;;;;;;17.23;11.27;;;3.20;99.90;;;;;;4953029;29;20416;-78
2022/01/16 02:54:40;;;;;;;21.07;11.90;;;3.30;99.90;;;;;;4955270;28;20413;-77
2022/01/16 02:57:09;;;;;;;20.87;9.90;;;3.20;99.90;;;;;;4956322;29;20427;-77
2022/01/16 02:59:35;;;;;;;17.90;9.97;;;3.20;99.90;;;;;;4956876;29;20480;-77
2022/01/16 03:02:01;;;;;;;16.40;8.57;;;3.20;99.90;;;;;;4958625;29;20468;-77
2022/01/16 03:04:28;;;;;;;17.50;10.17;;;3.20;99.90;;;;;;4940852;29;20451;-78
2022/01/16 03:06:55;;;;;;;20.83;11.70;;;3.10;99.90;;;;;;4957657;29;20454;-78
2022/01/16 03:09:22;;;;;;;21.00;10.47;;;3.10;99.90;;;;;;4958385;29;20443;-78
2022/01/16 03:11:49;;;;;;;15.73;10.10;;;3.20;99.90;;;;;;4939028;29;20455;-79
2022/01/16 03:14:18;;;;;;;19.63;10.60;;;3.10;99.90;;;;;;4955998;29;20455;-77
2022/01/16 03:16:48;;;;;;;17.23;9.40;;;3.20;99.90;;;;;;4956250;29;20417;-78
2022/01/16 03:22:03;;;;;;;19.30;11.20;;;3.20;99.90;;;;;;4956621;29;20412;-75
2022/01/16 03:24:32;;;;;;;17.27;10.27;;;3.20;99.90;;;;;;4939221;29;20945;-78
2022/01/16 03:27:06;;;;;;;21.07;11.03;;;3.20;99.90;;;;;;4956067;29;20549;-77
2022/01/16 03:29:33;;;;;;;22.30;11.50;;;3.30;99.90;;;;;;4956950;29;20764;-79
2022/01/16 03:32:00;;;;;;;23.30;13.80;;;3.30;99.90;;;;;;4938753;29;20409;-77
2022/01/16 03:34:26;;;;;;;23.83;13.33;;;3.30;99.90;;;;;;4939297;29;20444;-77
2022/01/16 03:36:52;;;;;;;23.90;13.93;;;3.30;99.90;;;;;;4938751;29;20858;-77
2022/01/16 03:39:18;;;;;;;27.80;15.30;;;3.40;99.90;;;;;;4955844;29;20165;-77
2022/01/16 03:41:44;;;;;;;24.60;13.23;;;3.30;99.80;;;;;;4955984;29;20774;-76
2022/01/16 03:44:10;;;;;;;30.20;14.70;;;3.30;99.80;;;;;;4955796;29;20570;-76
2022/01/16 03:46:38;;;;;;;31.50;16.73;;;3.40;99.90;;;;;;4960400;29;20460;-76
2022/01/16 03:49:07;;;;;;;29.80;17.40;;;3.40;99.80;;;;;;4957734;29;20814;-76
2022/01/16 03:51:34;;;;;;;32.23;16.40;;;3.30;99.20;;;;;;4956165;29;20500;-76
2022/01/16 03:54:00;;;;;;;38.33;17.57;;;3.40;99.60;;;;;;4956038;29;20515;-76
2022/01/16 03:56:26;;;;;;;28.80;16.30;;;3.40;99.10;;;;;;4938282;29;20524;-77
2022/01/16 03:58:51;;;;;;;33.00;16.77;;;3.40;99.50;;;;;;4955587;29;20205;-77
2022/01/16 04:01:18;;;;;;;36.37;18.50;;;3.40;99.20;;;;;;4938129;29;20437;-76
2022/01/16 04:03:44;;;;;;;31.40;15.50;;;3.40;99.10;;;;;;4955315;29;20169;-77
2022/01/16 04:06:10;;;;;;;33.17;15.60;;;3.40;99.20;;;;;;4936731;29;20456;-76
2022/01/16 04:08:36;;;;;;;28.50;16.70;;;3.50;99.20;;;;;;4955341;29;20690;-76
2022/01/16 04:11:02;;;;;;;26.60;15.97;;;3.50;98.80;;;;;;4941741;29;20901;-77
2022/01/16 04:13:27;;;;;;;36.93;18.37;;;3.50;98.50;;;;;;4956337;29;20685;-77
2022/01/16 04:15:53;;;;;;;36.13;18.80;;;3.50;98.00;;;;;;4958062;28;20419;-77
2022/01/16 04:18:19;;;;;;;34.63;17.33;;;3.40;98.30;;;;;;4974596;28;20168;-77
2022/01/16 04:20:44;;;;;;;30.80;15.70;;;3.40;98.30;;;;;;4957153;28;20271;-77
2022/01/16 04:23:11;;;;;;;28.53;15.90;;;3.40;98.30;;;;;;4969451;28;20228;-77
2022/01/16 04:25:37;;;;;;;35.87;17.90;;;3.40;98.40;;;;;;4937230;29;20169;-77
2022/01/16 04:28:04;;;;;;;27.80;16.90;;;3.40;98.40;;;;;;4955249;29;20466;-77
2022/01/16 04:30:29;;;;;;;33.00;16.27;;;3.50;98.40;;;;;;4954766;29;20523;-77
2022/01/16 04:32:55;;;;;;;28.43;16.83;;;3.50;98.40;;;;;;4937950;29;20444;-77
2022/01/16 04:35:21;;;;;;;34.27;18.83;;;3.50;98.30;;;;;;4957057;29;20168;-77
2022/01/16 04:37:47;;;;;;;33.57;16.57;;;3.50;98.20;;;;;;4956423;29;20177;-77
2022/01/16 04:40:14;;;;;;;41.27;19.17;;;3.50;98.00;;;;;;4955466;29;20428;-76
2022/01/16 04:45:24;;;;;;;32.30;15.60;;;3.50;98.10;;;;;;4956173;29;20455;-76
2022/01/16 04:47:51;;;;;;;35.83;18.93;;;3.60;98.00;;;;;;4969799;29;20464;-77
2022/01/16 04:50:17;;;;;;;32.77;18.03;;;3.60;98.10;;;;;;4977749;28;20197;-77
2022/01/16 04:52:45;;;;;;;30.10;17.30;;;3.60;97.90;;;;;;4970727;29;20460;-76
2022/01/16 04:55:12;;;;;;;38.27;20.27;;;3.60;97.90;;;;;;4954314;29;20436;-77
2022/01/16 04:57:38;;;;;;;35.30;18.43;;;3.60;97.80;;;;;;4937043;29;20471;-76
2022/01/16 05:00:11;;;;;;;31.37;17.03;;;3.60;97.70;;;;;;4954537;29;20441;-76
2022/01/16 05:02:37;;;;;;;30.47;17.30;;;3.60;97.60;;;;;;4954420;29;20658;-76
2022/01/16 05:05:04;;;;;;;32.50;18.57;;;3.60;97.60;;;;;;4953965;29;20438;-77
2022/01/16 05:07:30;;;;;;;34.20;15.87;;;3.50;97.50;;;;;;4954075;29;21009;-77
2022/01/16 05:09:55;;;;;;;35.60;17.70;;;3.50;97.60;;;;;;4936897;29;20460;-77
2022/01/16 05:12:33;;;;;;;32.17;16.23;;;3.50;97.70;;;;;;4954267;29;20436;-76
2022/01/16 05:17:44;;;;;;;33.83;16.00;;;3.50;97.70;;;;;;4972952;28;20474;-76
2022/01/16 05:20:10;;;;;;;26.00;14.90;;;3.50;97.60;;;;;;4973003;28;20715;-77
2022/01/16 05:22:36;;;;;;;20.80;12.80;;;3.50;97.60;;;;;;4973032;28;20531;-77
2022/01/16 05:25:05;;;;;;;20.57;12.10;;;3.50;97.20;;;;;;4936799;29;20417;-77
2022/01/16 05:27:30;;;;;;;24.83;14.53;;;3.50;97.60;;;;;;4936731;29;20523;-78
2022/01/16 05:29:56;;;;;;;27.93;14.90;;;3.50;97.60;;;;;;4936654;29;20548;-77
2022/01/16 05:32:22;;;;;;;26.77;14.73;;;3.50;97.60;;;;;;4955142;29;20207;-77
2022/01/16 05:34:47;;;;;;;27.90;13.27;;;3.50;97.00;;;;;;4954538;29;20435;-77
2022/01/16 05:37:13;;;;;;;25.07;13.90;;;3.50;97.10;;;;;;4954944;29;20508;-77
2022/01/16 05:39:40;;;;;;;30.47;13.40;;;3.50;97.30;;;;;;4954424;29;20574;-76
2022/01/16 05:42:07;;;;;;;27.67;13.27;;;3.50;97.00;;;;;;4920814;29;20176;-76
2022/01/16 05:44:33;;;;;;;27.67;15.43;;;3.50;97.00;;;;;;4953589;29;20507;-76
2022/01/16 05:47:02;;;;;;;26.60;12.83;;;3.50;97.10;;;;;;4936165;29;21007;-76
2022/01/16 05:49:28;;;;;;;28.30;15.70;;;3.50;97.10;;;;;;4953824;29;20523;-76
2022/01/16 05:51:54;;;;;;;36.27;18.50;;;3.50;96.90;;;;;;4937012;29;20413;-77
2022/01/16 05:54:20;;;;;;;35.57;20.47;;;3.50;96.80;;;;;;4954042;29;20523;-76
2022/01/16 05:56:45;;;;;;;34.70;16.50;;;3.50;97.00;;;;;;4936430;29;20208;-76
2022/01/16 05:59:11;;;;;;;43.30;18.27;;;3.50;97.10;;;;;;4954013;29;20247;-77
2022/01/16 06:01:37;;;;;;;31.07;16.40;;;3.50;97.10;;;;;;4953920;29;20169;-77
2022/01/16 06:04:03;;;;;;;35.60;19.30;;;3.50;97.10;;;;;;4953794;29;20176;-77
2022/01/16 06:06:29;;;;;;;32.67;18.87;;;3.50;96.90;;;;;;4953177;29;20690;-77
2022/01/16 06:08:54;;;;;;;40.37;19.10;;;3.50;96.90;;;;;;4936667;29;20165;-77
2022/01/16 06:11:20;;;;;;;34.43;17.77;;;3.50;96.90;;;;;;4953230;29;20475;-77
2022/01/16 06:13:46;;;;;;;35.40;18.73;;;3.50;97.00;;;;;;4936409;28;20188;-77
2022/01/16 06:16:12;;;;;;;34.90;17.57;;;3.60;97.10;;;;;;4954714;28;20201;-77
2022/01/16 06:18:37;;;;;;;41.43;20.53;;;3.60;97.10;;;;;;4972861;28;20180;-76
2022/01/16 06:21:03;;;;;;;39.93;20.00;;;3.60;97.00;;;;;;4971952;28;20470;-76
2022/01/16 06:23:30;;;;;;;38.90;19.80;;;3.60;97.00;;;;;;4964635;28;20183;-77
2022/01/16 06:25:55;;;;;;;38.47;18.70;;;3.60;96.90;;;;;;4952739;29;20417;-77
2022/01/16 06:28:27;;;;;;;36.07;20.47;;;3.60;96.90;;;;;;4953912;28;20415;-76
2022/01/16 06:30:53;;;;;;;41.33;18.93;;;3.60;96.90;;;;;;4956391;29;20824;-76
2022/01/16 06:33:19;;;;;;;44.83;20.70;;;3.60;96.80;;;;;;4956774;29;20416;-77
2022/01/16 06:35:45;;;;;;;47.53;21.17;;;3.60;96.80;;;;;;4956851;29;20826;-77
2022/01/16 06:38:10;;;;;;;39.87;18.70;;;3.60;96.70;;;;;;4957239;29;20408;-76
2022/01/16 06:40:36;;;;;;;38.30;18.97;;;3.60;96.90;;;;;;4956425;29;20995;-78
2022/01/16 06:43:02;;;;;;;44.33;20.80;;;3.60;96.80;;;;;;4939356;29;20173;-77
2022/01/16 06:45:28;;;;;;;45.37;21.53;;;3.60;96.90;;;;;;4956494;29;20177;-78
2022/01/16 06:47:55;;;;;;;43.27;21.13;;;3.60;97.00;;;;;;4939710;29;20205;-78
2022/01/16 06:50:20;;;;;;;44.70;22.50;;;3.60;96.90;;;;;;4960259;29;20473;-77
2022/01/16 06:52:46;;;;;;;39.70;20.20;;;3.60;96.90;;;;;;4958562;29;20408;-76
2022/01/16 06:55:12;;;;;;;41.03;21.30;;;3.60;96.90;;;;;;4956897;29;20212;-77
2022/01/16 06:57:37;;;;;;;54.63;23.03;;;3.70;96.90;;;;;;4956983;29;20165;-77
2022/01/16 07:00:07;;;;;;;44.30;22.37;;;3.70;96.90;;;;;;4957140;29;20204;-77
2022/01/16 07:02:33;;;;;;;46.23;20.50;;;3.70;96.90;;;;;;4939560;29;20181;-76
2022/01/16 07:04:59;;;;;;;52.80;24.00;;;3.70;96.90;;;;;;4938795;29;20431;-77
2022/01/16 07:07:24;;;;;;;48.80;23.40;;;3.80;97.00;;;;;;4956273;29;20212;-77
2022/01/16 07:09:50;;;;;;;50.03;24.30;;;3.80;96.70;;;;;;4956340;29;20220;-76
2022/01/16 07:12:16;;;;;;;48.83;24.57;;;3.80;96.80;;;;;;4956412;29;20251;-76
2022/01/16 07:14:43;;;;;;;46.97;22.90;;;3.80;96.80;;;;;;4964181;28;20169;-77
2022/01/16 07:17:09;;;;;;;44.30;21.83;;;3.80;96.80;;;;;;4975675;28;20188;-76
2022/01/16 07:19:34;;;;;;;61.50;28.03;;;3.80;96.70;;;;;;4975472;28;20483;-77
2022/01/16 07:22:00;;;;;;;47.97;23.20;;;3.80;96.60;;;;;;4975996;28;20818;-76
2022/01/16 07:24:26;;;;;;;44.30;22.93;;;3.80;96.60;;;;;;4960955;28;20189;-78
2022/01/16 07:26:54;;;;;;;44.50;24.90;;;3.90;96.70;;;;;;4938839;29;20914;-78
2022/01/16 07:29:20;;;;;;;43.43;22.97;;;3.90;96.60;;;;;;4956919;29;20420;-77
2022/01/16 07:31:46;;;;;;;43.30;23.17;;;3.90;96.60;;;;;;4956029;29;20499;-77
2022/01/16 07:34:12;;;;;;;47.83;24.30;;;3.90;96.60;;;;;;4922248;29;20421;-76
2022/01/16 07:36:38;;;;;;;48.00;25.03;;;3.90;96.60;;;;;;4955474;29;20165;-77
2022/01/16 07:39:04;;;;;;;50.43;22.00;;;3.90;96.60;;;;;;4955140;28;20178;-77
2022/01/16 07:41:30;;;;;;;38.77;20.83;;;3.90;96.60;;;;;;4938073;29;20487;-77
2022/01/16 07:43:56;;;;;;;50.03;23.40;;;4.00;96.70;;;;;;4955514;29;20463;-77
2022/01/16 07:46:21;;;;;;;53.33;24.20;;;4.00;96.60;;;;;;4955503;29;20295;-77
2022/01/16 07:48:48;;;;;;;41.00;23.73;;;4.00;96.50;;;;;;4952678;29;20274;-76
2022/01/16 07:51:13;;;;;;;47.70;24.23;;;4.00;96.50;;;;;;4933451;29;20200;-78
2022/01/16 07:53:39;;;;;;;48.30;22.97;;;4.00;96.50;;;;;;4953426;28;20425;-77
2022/01/16 07:56:05;;;;;;;53.07;24.00;;;4.10;96.60;;;;;;4945006;29;20170;-78
2022/01/16 07:58:30;;;;;;;53.97;23.50;;;4.10;96.40;;;;;;4957059;28;20205;-77
2022/01/16 08:00:56;;;;;;;48.33;24.00;;;4.10;96.30;;;;;;4966518;28;20197;-77
2022/01/16 08:03:23;;;;;;;50.10;24.20;;;4.10;96.40;;;;;;4943921;28;20237;-78
2022/01/16 08:05:48;;;;;;;49.70;24.13;;;4.10;96.30;;;;;;4962897;28;20210;-76
2022/01/16 08:08:14;;;;;;;48.20;25.60;;;4.10;96.40;;;;;;4952451;29;20456;-77
2022/01/16 08:10:40;;;;;;;47.10;23.77;;;4.20;96.30;;;;;;4941797;29;20247;-77
2022/01/16 08:13:06;;;;;;;47.17;24.63;;;4.10;96.10;;;;;;4946731;28;20659;-77
2022/01/16 08:15:32;;;;;;;44.00;23.50;;;4.10;96.20;;;;;;4957616;28;20462;-77
2022/01/16 08:17:57;;;;;;;44.63;21.80;;;4.20;96.10;;;;;;4954566;28;20191;-77
2022/01/16 08:20:24;;;;;;;53.30;25.43;;;4.20;96.30;;;;;;4991386;23;20285;-78
2022/01/16 08:22:49;;;;;;;44.90;24.73;;;4.20;96.30;;;;;;4954012;29;20176;-77
2022/01/16 08:25:15;;;;;;;50.03;23.53;;;4.20;96.20;;;;;;4954480;29;20895;-79
2022/01/16 08:27:42;;;;;;;42.47;21.93;;;4.20;96.20;;;;;;4955640;28;20221;-79
2022/01/16 08:30:09;;;;;;;56.37;24.67;;;4.20;96.30;;;;;;4938938;29;20180;-77
2022/01/16 08:32:35;;;;;;;50.27;25.83;;;4.20;96.30;;;;;;4955452;29;20440;-78
2022/01/16 08:35:01;;;;;;;55.23;25.80;;;4.20;96.20;;;;;;4958092;29;20424;-79
2022/01/16 08:37:27;;;;;;;49.17;26.83;;;4.20;96.60;;;;;;4938909;29;20488;-79
2022/01/16 08:39:53;;;;;;;57.03;24.77;;;4.30;96.20;;;;;;4930551;29;20440;-76
2022/01/16 08:42:18;;;;;;;51.27;23.60;;;4.30;96.10;;;;;;4936823;29;20185;-79
2022/01/16 08:44:44;;;;;;;51.93;26.43;;;4.30;96.20;;;;;;4917275;29;20273;-78
2022/01/16 08:47:10;;;;;;;45.77;24.50;;;4.40;96.10;;;;;;4955637;29;20229;-79
2022/01/16 08:49:36;;;;;;;43.57;23.97;;;4.40;96.00;;;;;;4953357;29;20321;-79
2022/01/16 08:52:03;;;;;;;47.37;24.10;;;4.40;96.10;;;;;;4941384;28;20193;-77
2022/01/16 08:54:29;;;;;;;45.63;22.00;;;4.40;96.10;;;;;;4948308;29;20550;-77
2022/01/16 08:56:55;;;;;;;41.30;20.60;;;4.40;96.00;;;;;;4937509;29;20439;-77
2022/01/16 08:59:20;;;;;;;48.97;22.27;;;4.40;96.00;;;;;;4955965;29;20420;-78
2022/01/16 09:01:46;;;;;;;45.40;23.90;;;4.40;95.90;;;;;;4957707;29;20445;-79
2022/01/16 09:04:12;;;;;;;42.77;23.20;;;4.50;96.00;;;;;;4935037;29;20662;-79
2022/01/16 09:06:38;;;;;;;43.70;22.10;;;4.50;96.00;;;;;;4951845;29;20200;-80
2022/01/16 09:09:04;;;;;;;47.10;22.33;;;4.50;96.00;;;;;;4956347;28;20511;-79
2022/01/16 09:11:29;;;;;;;44.77;21.60;;;4.50;95.90;;;;;;4956034;29;20733;-80
2022/01/16 09:13:55;;;;;;;42.53;21.87;;;4.50;95.90;;;;;;4957924;28;20209;-79
2022/01/16 09:16:21;;;;;;;43.97;22.50;;;4.60;96.30;;;;;;4954653;28;20429;-79
2022/01/16 09:18:48;;;;;;;51.93;25.10;;;4.60;96.10;;;;;;4948456;29;20674;-78
2022/01/16 09:21:18;;;;;;;41.40;22.87;;;4.60;95.80;;;;;;4954766;29;20448;-77
2022/01/16 09:23:51;;;;;;;39.00;21.73;;;4.60;95.70;;;;;;4946256;29;20435;-78
2022/01/16 09:26:17;;;;;;;41.63;22.03;;;4.70;95.60;;;;;;4955924;29;20461;-79
2022/01/16 09:28:44;;;;;;;44.90;21.17;;;4.60;95.30;;;;;;4951759;29;20437;-76
2022/01/16 09:31:10;;;;;;;45.93;22.73;;;4.70;95.60;;;;;;4943601;29;20441;-73
2022/01/16 09:33:36;;;;;;;38.53;21.97;;;4.70;95.40;;;;;;4956579;29;20511;-77
2022/01/16 09:36:04;;;;;;;40.63;20.87;;;4.70;95.20;;;;;;4967645;29;20433;-76
2022/01/16 09:38:29;;;;;;;44.30;20.87;;;4.80;95.00;;;;;;4962228;29;20177;-74
2022/01/16 09:40:55;;;;;;;37.00;20.77;;;4.80;94.90;;;;;;4950744;29;20491;-74
2022/01/16 09:43:21;;;;;;;38.60;19.00;;;4.80;94.60;;;;;;4922957;29;20181;-74
2022/01/16 09:45:48;;;;;;;42.57;21.87;;;4.80;94.90;;;;;;4936191;29;20413;-73
2022/01/16 09:48:16;;;;;;;39.33;21.37;;;4.90;94.30;;;;;;4930053;29;20454;-74
2022/01/16 09:50:42;;;;;;;38.10;20.37;;;4.90;94.60;;;;;;4936499;29;20445;-73
2022/01/16 09:53:08;;;;;;;41.60;21.27;;;5.00;94.50;;;;;;4950826;29;20499;-72
2022/01/16 09:55:33;;;;;;;38.37;18.80;;;5.00;94.30;;;;;;4945067;29;20428;-72
2022/01/16 09:58:00;;;;;;;44.80;20.07;;;5.00;94.00;;;;;;4937098;29;20540;-74
2022/01/16 10:00:27;;;;;;;37.53;19.27;;;5.10;93.90;;;;;;4954969;28;20189;-74
2022/01/16 10:02:53;;;;;;;35.87;18.53;;;5.10;93.90;;;;;;4926047;29;20877;-72
2022/01/16 10:05:37;;;;;;;37.10;19.23;;;5.10;93.50;;;;;;4949073;29;20468;-75
2022/01/16 10:08:08;;;;;;;39.97;20.03;;;5.20;93.50;;;;;;4943468;29;20567;-75
2022/01/16 10:10:39;;;;;;;33.77;17.47;;;5.20;93.50;;;;;;4947214;29;20542;-74
2022/01/16 10:13:25;;;;;;;36.43;19.00;;;5.30;93.50;;;;;;4937882;29;20420;-73
2022/01/16 10:15:55;;;;;;;32.97;18.03;;;5.30;93.50;;;;;;4953530;28;20428;-73
2022/01/16 10:18:35;;;;;;;42.67;20.50;;;5.40;93.40;;;;;;4947778;29;20961;-76
2022/01/16 10:21:01;;;;;;;44.05;23.50;;;5.40;93.10;;;;;;4934999;29;20510;-72
2022/01/16 10:23:27;;;;;;;34.67;19.03;;;5.40;93.00;;;;;;4950411;29;20173;-74
2022/01/16 10:25:53;;;;;;;36.13;17.07;;;5.50;92.60;;;;;;4950612;29;20409;-73
2022/01/16 10:28:23;;;;;;;33.70;16.67;;;5.60;92.80;;;;;;4934581;29;20224;-73
2022/01/16 10:30:54;;;;;;;36.47;18.50;;;5.70;92.90;;;;;;4953771;29;20204;-73
2022/01/16 10:33:22;;;;;;;36.77;17.27;;;5.80;92.30;;;;;;4952771;29;20507;-73
2022/01/16 10:35:50;;;;;;;34.63;18.00;;;5.80;91.60;;;;;;4952225;29;20847;-72
2022/01/16 10:38:19;;;;;;;34.50;18.30;;;5.90;91.80;;;;;;4952665;29;20425;-73
2022/01/16 10:40:50;;;;;;;44.77;19.93;;;5.80;91.70;;;;;;4952546;29;20463;-78
2022/01/16 10:43:21;;;;;;;34.37;15.77;;;5.80;91.90;;;;;;4941599;29;20444;-72
2022/01/16 10:45:51;;;;;;;38.63;18.93;;;5.80;92.30;;;;;;4950391;29;20852;-71
2022/01/16 10:48:22;;;;;;;37.23;19.10;;;5.80;92.30;;;;;;4949925;29;20456;-72
2022/01/16 10:50:49;;;;;;;35.70;19.80;;;5.80;92.40;;;;;;4950319;29;20472;-74
2022/01/16 10:53:17;;;;;;;38.53;17.80;;;5.80;92.50;;;;;;4930805;29;20843;-72
2022/01/16 10:55:54;;;;;;;36.63;18.23;;;5.80;92.70;;;;;;4954027;29;20459;-76
2022/01/16 10:58:26;;;;;;;45.27;20.10;;;5.80;92.70;;;;;;4964983;29;20463;-74
2022/01/16 11:01:03;;;;;;;45.07;18.80;;;5.80;92.70;;;;;;4936685;29;20444;-71
